Hlavní strana
METAR-TAF:

METAR-TAF

Letiště :

Berbérati, Středoafrická republika

zeměpisná šířka: 04-15N, zeměpisná délka: 015-48E, výška: 582 m

Aktuální stav počasí

Zpráva byla vytvořena před 18 hodinami a 44 minutami, v 10:00 UTC
Jihozápadní vítr 4 kt
Teplota 29°C
Vlhkost vzduchu 70%
Tlak 1016 hPa
Viditelnost 10 km a více
Polojasno ve výšce 2600 ft

METAR: FEFT 251000Z 22004KT 9999 SCT026 29/23 Q1016

Čas: 05:44 (04:44 UTC)


TAF: chybějící

Stav a předpovědi počasí z více než 4 000 letišť (zprávy METAR a TAF).

Červené a žluté tečky na mapě představují dostupné meteorologické stanice.

Když kurzor umístíte na tečku, zobrazí se název stanice.

Pak kliknutím zobrazíte stav a předpověď počasí.

Chcete-li změnit mapu, kliknutím na zelené tlačítko se znaménkem +mapu přiblížíte, kliknutím na zelené tlačítko se znaménkem – mapu oddálíte a kliknutím na zelené šipky přejdete na sousední mapy.


METAR-TAF: